sensor_id;sensor_type;location;lat;lon;timestamp;pressure;altitude;pressure_sealevel;temperature;humidity
21359;BME280;13506;50.852;20.632;2023-02-14T00:01:28;99802.41;;;2.87;97.13
21359;BME280;13506;50.852;20.632;2023-02-14T00:03:57;99799.84;;;2.84;97.26
21359;BME280;13506;50.852;20.632;2023-02-14T00:06:27;99792.09;;;2.84;97.14
21359;BME280;13506;50.852;20.632;2023-02-14T00:08:55;99794.69;;;2.84;97.34
21359;BME280;13506;50.852;20.632;2023-02-14T00:11:23;99793.00;;;2.83;97.29
21359;BME280;13506;50.852;20.632;2023-02-14T00:13:51;99798.16;;;2.83;97.61
21359;BME280;13506;50.852;20.632;2023-02-14T00:16:37;99796.53;;;2.79;97.55
21359;BME280;13506;50.852;20.632;2023-02-14T00:19:06;99792.19;;;2.79;97.49
21359;BME280;13506;50.852;20.632;2023-02-14T00:21:36;99803.38;;;2.80;97.17
21359;BME280;13506;50.852;20.632;2023-02-14T00:24:06;99790.44;;;2.81;97.24
21359;BME280;13506;50.852;20.632;2023-02-14T00:26:35;99796.53;;;2.79;97.38
21359;BME280;13506;50.852;20.632;2023-02-14T00:29:04;99796.44;;;2.84;97.00
21359;BME280;13506;50.852;20.632;2023-02-14T00:31:32;99794.75;;;2.81;97.12
21359;BME280;13506;50.852;20.632;2023-02-14T00:34:00;99797.41;;;2.76;97.37
21359;BME280;13506;50.852;20.632;2023-02-14T00:36:30;99798.22;;;2.80;97.42
21359;BME280;13506;50.852;20.632;2023-02-14T00:38:58;99802.56;;;2.76;97.36
21359;BME280;13506;50.852;20.632;2023-02-14T00:41:26;99797.38;;;2.78;97.10
21359;BME280;13506;50.852;20.632;2023-02-14T00:43:54;99806.88;;;2.76;97.68
21359;BME280;13506;50.852;20.632;2023-02-14T00:46:24;99799.97;;;2.78;97.44
21359;BME280;13506;50.852;20.632;2023-02-14T00:48:53;99805.03;;;2.84;97.46
21359;BME280;13506;50.852;20.632;2023-02-14T00:51:21;99806.78;;;2.84;97.08
21359;BME280;13506;50.852;20.632;2023-02-14T00:53:51;99798.16;;;2.83;97.19
21359;BME280;13506;50.852;20.632;2023-02-14T00:56:19;99801.63;;;2.82;97.66
21359;BME280;13506;50.852;20.632;2023-02-14T00:58:48;99795.53;;;2.85;97.38
21359;BME280;13506;50.852;20.632;2023-02-14T01:01:18;99798.09;;;2.86;97.41
21359;BME280;13506;50.852;20.632;2023-02-14T01:03:46;99803.25;;;2.89;97.02
21359;BME280;13506;50.852;20.632;2023-02-14T01:06:15;99797.25;;;2.86;97.01
21359;BME280;13506;50.852;20.632;2023-02-14T01:08:43;99803.16;;;2.92;97.41
21359;BME280;13506;50.852;20.632;2023-02-14T01:11:15;99796.28;;;2.91;96.91
21359;BME280;13506;50.852;20.632;2023-02-14T01:13:46;99799.75;;;2.90;97.05
21359;BME280;13506;50.852;20.632;2023-02-14T01:16:18;99791.19;;;2.88;96.81
21359;BME280;13506;50.852;20.632;2023-02-14T01:18:48;99792.91;;;2.89;96.80
21359;BME280;13506;50.852;20.632;2023-02-14T01:21:20;99792.91;;;2.89;96.83
21359;BME280;13506;50.852;20.632;2023-02-14T01:23:50;99785.16;;;2.89;97.00
21359;BME280;13506;50.852;20.632;2023-02-14T01:26:21;99787.72;;;2.89;96.98
21359;BME280;13506;50.852;20.632;2023-02-14T01:28:49;99780.84;;;2.88;96.57
21359;BME280;13506;50.852;20.632;2023-02-14T01:31:21;99798.06;;;2.89;96.75
21359;BME280;13506;50.852;20.632;2023-02-14T01:33:50;99787.84;;;2.81;97.02
21359;BME280;13506;50.852;20.632;2023-02-14T01:36:20;99792.09;;;2.84;96.56
21359;BME280;13506;50.852;20.632;2023-02-14T01:38:51;99786.09;;;2.84;97.07
21359;BME280;13506;50.852;20.632;2023-02-14T01:41:22;99775.75;;;2.84;97.48
21359;BME280;13506;50.852;20.632;2023-02-14T01:43:56;99777.50;;;2.83;97.52
21359;BME280;13506;50.852;20.632;2023-02-14T01:46:26;99769.81;;;2.78;97.08
21359;BME280;13506;50.852;20.632;2023-02-14T01:49:00;99773.28;;;2.76;97.16
21359;BME280;13506;50.852;20.632;2023-02-14T01:51:31;99768.09;;;2.79;96.94
21359;BME280;13506;50.852;20.632;2023-02-14T01:54:01;99762.03;;;2.80;96.95
21359;BME280;13506;50.852;20.632;2023-02-14T01:56:34;99764.59;;;2.81;97.13
21359;BME280;13506;50.852;20.632;2023-02-14T01:59:07;99766.34;;;2.81;96.96
21359;BME280;13506;50.852;20.632;2023-02-14T02:01:38;99768.94;;;2.78;97.42
21359;BME280;13506;50.852;20.632;2023-02-14T02:04:10;99763.78;;;2.79;97.32
21359;BME280;13506;50.852;20.632;2023-02-14T02:06:42;99762.94;;;2.79;97.02
21359;BME280;13506;50.852;20.632;2023-02-14T02:09:15;99760.41;;;2.74;96.86
21359;BME280;13506;50.852;20.632;2023-02-14T02:11:46;99765.50;;;2.79;97.39
21359;BME280;13506;50.852;20.632;2023-02-14T02:14:17;99762.94;;;2.79;97.30
21359;BME280;13506;50.852;20.632;2023-02-14T02:17:09;99767.19;;;2.80;97.13
21359;BME280;13506;50.852;20.632;2023-02-14T02:20:10;99770.72;;;2.74;97.74
21359;BME280;13506;50.852;20.632;2023-02-14T02:29:29;99777.84;;;2.61;98.17
21359;BME280;13506;50.852;20.632;2023-02-14T02:32:40;99783.00;;;2.61;98.22
21359;BME280;13506;50.852;20.632;2023-02-14T02:35:26;99781.31;;;2.60;98.04
21359;BME280;13506;50.852;20.632;2023-02-14T02:38:14;99771.00;;;2.59;98.01
21359;BME280;13506;50.852;20.632;2023-02-14T02:40:52;99773.66;;;2.54;98.58
21359;BME280;13506;50.852;20.632;2023-02-14T02:43:36;99777.16;;;2.52;98.70
21359;BME280;13506;50.852;20.632;2023-02-14T02:46:15;99778.03;;;2.51;99.00
21359;BME280;13506;50.852;20.632;2023-02-14T02:49:32;99774.66;;;2.44;98.87
21359;BME280;13506;50.852;20.632;2023-02-14T02:52:28;99783.28;;;2.43;99.01
21359;BME280;13506;50.852;20.632;2023-02-14T02:55:24;99774.72;;;2.41;99.30
21359;BME280;13506;50.852;20.632;2023-02-14T02:57:55;99783.41;;;2.34;99.98
21359;BME280;13506;50.852;20.632;2023-02-14T03:00:24;99780.00;;;2.32;99.84
21359;BME280;13506;50.852;20.632;2023-02-14T03:02:54;99780.94;;;2.28;100.00
21359;BME280;13506;50.852;20.632;2023-02-14T03:05:41;99792.09;;;2.30;100.00
21359;BME280;13506;50.852;20.632;2023-02-14T03:08:11;99788.59;;;2.34;100.00
21359;BME280;13506;50.852;20.632;2023-02-14T03:10:39;99804.88;;;2.37;99.94
21359;BME280;13506;50.852;20.632;2023-02-14T03:13:38;99786.75;;;2.42;100.00
21359;BME280;13506;50.852;20.632;2023-02-14T03:16:32;99805.75;;;2.38;99.90
21359;BME280;13506;50.852;20.632;2023-02-14T03:19:46;99795.38;;;2.41;100.00
21359;BME280;13506;50.852;20.632;2023-02-14T03:22:46;99799.63;;;2.44;99.97
21359;BME280;13506;50.852;20.632;2023-02-14T03:25:24;99806.50;;;2.48;99.89
21359;BME280;13506;50.852;20.632;2023-02-14T03:28:01;99798.03;;;2.36;99.70
21359;BME280;13506;50.852;20.632;2023-02-14T03:30:37;99799.59;;;2.47;99.61
21359;BME280;13506;50.852;20.632;2023-02-14T03:33:15;99805.66;;;2.46;99.65
21359;BME280;13506;50.852;20.632;2023-02-14T03:35:52;99809.97;;;2.42;100.00
21359;BME280;13506;50.852;20.632;2023-02-14T03:38:26;99816.03;;;2.41;100.00
21359;BME280;13506;50.852;20.632;2023-02-14T03:41:01;99809.16;;;2.40;100.00
21359;BME280;13506;50.852;20.632;2023-02-14T03:43:34;99815.09;;;2.47;99.87
21359;BME280;13506;50.852;20.632;2023-02-14T03:46:07;99809.91;;;2.50;99.73
21359;BME280;13506;50.852;20.632;2023-02-14T03:48:39;99811.59;;;2.52;100.00
21359;BME280;13506;50.852;20.632;2023-02-14T03:51:10;99811.56;;;2.54;99.52
21359;BME280;13506;50.852;20.632;2023-02-14T03:53:44;99811.59;;;2.52;99.42
21359;BME280;13506;50.852;20.632;2023-02-14T03:56:20;99815.88;;;2.53;100.00
21359;BME280;13506;50.852;20.632;2023-02-14T03:58:52;99815.91;;;2.52;99.66
21359;BME280;13506;50.852;20.632;2023-02-14T04:01:24;99822.84;;;2.48;100.00
21359;BME280;13506;50.852;20.632;2023-02-14T04:03:57;99822.00;;;2.48;99.99
21359;BME280;13506;50.852;20.632;2023-02-14T04:06:26;99815.91;;;2.50;99.81
21359;BME280;13506;50.852;20.632;2023-02-14T04:08:54;99817.56;;;2.54;100.00
21359;BME280;13506;50.852;20.632;2023-02-14T04:11:24;99815.91;;;2.50;100.00
21359;BME280;13506;50.852;20.632;2023-02-14T04:13:52;99811.69;;;2.45;100.00
21359;BME280;13506;50.852;20.632;2023-02-14T04:16:20;99812.53;;;2.44;100.00
21359;BME280;13506;50.852;20.632;2023-02-14T04:18:48;99817.72;;;2.45;100.00
21359;BME280;13506;50.852;20.632;2023-02-14T04:21:33;99809.09;;;2.46;100.00
21359;BME280;13506;50.852;20.632;2023-02-14T04:24:01;99808.22;;;2.47;100.00
21359;BME280;13506;50.852;20.632;2023-02-14T04:26:30;99807.41;;;2.45;100.00
21359;BME280;13506;50.852;20.632;2023-02-14T04:28:58;99791.06;;;2.40;100.00
21359;BME280;13506;50.852;20.632;2023-02-14T04:31:26;99798.06;;;2.35;100.00
21359;BME280;13506;50.852;20.632;2023-02-14T04:33:55;99788.50;;;2.40;100.00
21359;BME280;13506;50.852;20.632;2023-02-14T04:36:23;99785.97;;;2.38;100.00
21359;BME280;13506;50.852;20.632;2023-02-14T04:38:51;99788.56;;;2.37;100.00
21359;BME280;13506;50.852;20.632;2023-02-14T04:41:20;99790.25;;;2.38;100.00
21359;BME280;13506;50.852;20.632;2023-02-14T04:43:49;99795.53;;;2.30;100.00
21359;BME280;13506;50.852;20.632;2023-02-14T04:46:18;99800.66;;;2.32;100.00
21359;BME280;13506;50.852;20.632;2023-02-14T04:48:46;99802.38;;;2.33;100.00
21359;BME280;13506;50.852;20.632;2023-02-14T04:51:14;99793.81;;;2.31;100.00
21359;BME280;13506;50.852;20.632;2023-02-14T04:53:42;99807.63;;;2.27;100.00
21359;BME280;13506;50.852;20.632;2023-02-14T04:56:10;99804.22;;;2.25;100.00
21359;BME280;13506;50.852;20.632;2023-02-14T04:58:38;99796.41;;;2.28;100.00
21359;BME280;13506;50.852;20.632;2023-02-14T05:01:09;99803.28;;;2.30;100.00
21359;BME280;13506;50.852;20.632;2023-02-14T05:03:37;99808.47;;;2.30;100.00
21359;BME280;13506;50.852;20.632;2023-02-14T05:06:05;99807.69;;;2.24;100.00
21359;BME280;13506;50.852;20.632;2023-02-14T05:08:33;99800.81;;;2.22;100.00
21359;BME280;13506;50.852;20.632;2023-02-14T05:11:01;99811.09;;;2.26;100.00
21359;BME280;13506;50.852;20.632;2023-02-14T05:13:29;99816.16;;;2.32;100.00
21359;BME280;13506;50.852;20.632;2023-02-14T05:15:59;99805.00;;;2.30;100.00
21359;BME280;13506;50.852;20.632;2023-02-14T05:18:28;99811.88;;;2.32;100.00
21359;BME280;13506;50.852;20.632;2023-02-14T05:20:56;99812.94;;;2.17;100.00
21359;BME280;13506;50.852;20.632;2023-02-14T05:23:24;99812.78;;;2.28;100.00
21359;BME280;13506;50.852;20.632;2023-02-14T05:25:52;99820.56;;;2.25;100.00
21359;BME280;13506;50.852;20.632;2023-02-14T05:28:20;99817.97;;;2.27;100.00
21359;BME280;13506;50.852;20.632;2023-02-14T05:30:50;99811.13;;;2.22;100.00
21359;BME280;13506;50.852;20.632;2023-02-14T05:33:18;99811.06;;;2.29;100.00
21359;BME280;13506;50.852;20.632;2023-02-14T05:35:48;99809.31;;;2.29;100.00
21359;BME280;13506;50.852;20.632;2023-02-14T05:38:16;99823.94;;;2.30;100.00
21359;BME280;13506;50.852;20.632;2023-02-14T05:40:44;99813.66;;;2.26;100.00
21359;BME280;13506;50.852;20.632;2023-02-14T05:43:12;99812.03;;;2.21;100.00
21359;BME280;13506;50.852;20.632;2023-02-14T05:45:41;99815.41;;;2.25;100.00
21359;BME280;13506;50.852;20.632;2023-02-14T05:48:09;99827.47;;;2.23;100.00
21359;BME280;13506;50.852;20.632;2023-02-14T05:50:37;99818.03;;;2.24;100.00
21359;BME280;13506;50.852;20.632;2023-02-14T05:53:06;99818.13;;;2.14;100.00
21359;BME280;13506;50.852;20.632;2023-02-14T05:55:35;99827.53;;;2.20;100.00
21359;BME280;13506;50.852;20.632;2023-02-14T05:58:02;99827.47;;;2.25;100.00
21359;BME280;13506;50.852;20.632;2023-02-14T06:00:31;99836.94;;;2.24;100.00
21359;BME280;13506;50.852;20.632;2023-02-14T06:02:59;99842.97;;;2.23;100.00
21359;BME280;13506;50.852;20.632;2023-02-14T06:05:28;99841.22;;;2.25;100.00
21359;BME280;13506;50.852;20.632;2023-02-14T06:07:56;99838.63;;;2.25;100.00
21359;BME280;13506;50.852;20.632;2023-02-14T06:10:25;99831.72;;;2.26;100.00
21359;BME280;13506;50.852;20.632;2023-02-14T06:12:54;99847.44;;;2.10;100.00
21359;BME280;13506;50.852;20.632;2023-02-14T06:15:23;99833.41;;;2.30;100.00
21359;BME280;13506;50.852;20.632;2023-02-14T06:17:52;99840.31;;;2.28;100.00
21359;BME280;13506;50.852;20.632;2023-02-14T06:20:21;99843.88;;;2.20;100.00
21359;BME280;13506;50.852;20.632;2023-02-14T06:22:50;99843.78;;;2.27;100.00
21359;BME280;13506;50.852;20.632;2023-02-14T06:25:18;99849.03;;;2.19;100.00
21359;BME280;13506;50.852;20.632;2023-02-14T06:27:48;99870.53;;;2.21;100.00
21359;BME280;13506;50.852;20.632;2023-02-14T06:30:17;99859.28;;;2.27;100.00
21359;BME280;13506;50.852;20.632;2023-02-14T06:32:45;99865.31;;;2.26;100.00
21359;BME280;13506;50.852;20.632;2023-02-14T06:35:14;99855.81;;;2.28;100.00
21359;BME280;13506;50.852;20.632;2023-02-14T06:37:42;99868.84;;;2.18;100.00
21359;BME280;13506;50.852;20.632;2023-02-14T06:40:12;99867.03;;;2.27;100.00
21359;BME280;13506;50.852;20.632;2023-02-14T06:42:40;99867.84;;;2.30;100.00
21359;BME280;13506;50.852;20.632;2023-02-14T06:45:10;99866.06;;;2.34;100.00
21359;BME280;13506;50.852;20.632;2023-02-14T06:47:38;99868.69;;;2.32;100.00
21359;BME280;13506;50.852;20.632;2023-02-14T06:50:07;99868.56;;;2.40;100.00
21359;BME280;13506;50.852;20.632;2023-02-14T06:52:37;99870.22;;;2.44;100.00
21359;BME280;13506;50.852;20.632;2023-02-14T06:55:08;99871.06;;;2.46;100.00
21359;BME280;13506;50.852;20.632;2023-02-14T06:57:39;99882.28;;;2.42;100.00
21359;BME280;13506;50.852;20.632;2023-02-14T07:00:09;99875.38;;;2.42;100.00
21359;BME280;13506;50.852;20.632;2023-02-14T07:02:38;99874.53;;;2.44;100.00
21359;BME280;13506;50.852;20.632;2023-02-14T07:05:06;99882.22;;;2.51;100.00
21359;BME280;13506;50.852;20.632;2023-02-14T07:07:34;99879.69;;;2.44;100.00
21359;BME280;13506;50.852;20.632;2023-02-14T07:10:02;99880.50;;;2.49;100.00
21359;BME280;13506;50.852;20.632;2023-02-14T07:12:45;99880.50;;;2.49;100.00
21359;BME280;13506;50.852;20.632;2023-02-14T07:15:14;99892.50;;;2.53;100.00
21359;BME280;13506;50.852;20.632;2023-02-14T07:17:42;99890.72;;;2.56;100.00
21359;BME280;13506;50.852;20.632;2023-02-14T07:20:14;99877.81;;;2.58;100.00
21359;BME280;13506;50.852;20.632;2023-02-14T07:22:44;99882.94;;;2.59;100.00
21359;BME280;13506;50.852;20.632;2023-02-14T07:25:12;99882.94;;;2.59;100.00
21359;BME280;13506;50.852;20.632;2023-02-14T07:27:40;99889.91;;;2.54;100.00
21359;BME280;13506;50.852;20.632;2023-02-14T07:30:10;99887.53;;;2.37;100.00
21359;BME280;13506;50.852;20.632;2023-02-14T07:32:39;99883.00;;;2.56;100.00
21359;BME280;13506;50.852;20.632;2023-02-14T07:35:08;99883.84;;;2.57;100.00
21359;BME280;13506;50.852;20.632;2023-02-14T07:37:36;99889.03;;;2.55;100.00
21359;BME280;13506;50.852;20.632;2023-02-14T07:40:06;99887.38;;;2.51;100.00
21359;BME280;13506;50.852;20.632;2023-02-14T07:42:34;99878.66;;;2.58;100.00
21359;BME280;13506;50.852;20.632;2023-02-14T07:45:02;99876.88;;;2.62;100.00
21359;BME280;13506;50.852;20.632;2023-02-14T07:47:32;99883.56;;;2.74;100.00
21359;BME280;13506;50.852;20.632;2023-02-14T07:50:02;99875.81;;;2.75;100.00
21359;BME280;13506;50.852;20.632;2023-02-14T07:52:30;99859.41;;;2.76;100.00
21359;BME280;13506;50.852;20.632;2023-02-14T07:54:58;99880.22;;;2.70;100.00
21359;BME280;13506;50.852;20.632;2023-02-14T07:57:26;99886.16;;;2.74;100.00
21359;BME280;13506;50.852;20.632;2023-02-14T07:59:54;99886.31;;;2.65;100.00
21359;BME280;13506;50.852;20.632;2023-02-14T08:02:22;99867.25;;;2.72;100.00
21359;BME280;13506;50.852;20.632;2023-02-14T08:04:57;99882.81;;;2.69;100.00
21359;BME280;13506;50.852;20.632;2023-02-14T08:07:40;99881.91;;;2.70;100.00
21359;BME280;13506;50.852;20.632;2023-02-14T08:10:21;99878.56;;;2.66;100.00
21359;BME280;13506;50.852;20.632;2023-02-14T08:12:48;99865.63;;;2.66;100.00
21359;BME280;13506;50.852;20.632;2023-02-14T08:15:28;99880.22;;;2.70;100.00
21359;BME280;13506;50.852;20.632;2023-02-14T08:18:14;99881.25;;;2.58;100.00
21359;BME280;13506;50.852;20.632;2023-02-14T08:20:43;99887.81;;;2.79;100.00
21359;BME280;13506;50.852;20.632;2023-02-14T08:23:13;99885.03;;;2.92;100.00
21359;BME280;13506;50.852;20.632;2023-02-14T08:25:41;99887.53;;;2.96;100.00
21359;BME280;13506;50.852;20.632;2023-02-14T08:28:11;99888.38;;;2.97;100.00
21359;BME280;13506;50.852;20.632;2023-02-14T08:30:41;99886.63;;;2.99;99.88
21359;BME280;13506;50.852;20.632;2023-02-14T08:33:09;99891.81;;;2.97;100.00
21359;BME280;13506;50.852;20.632;2023-02-14T08:35:37;99891.78;;;3.00;99.99
21359;BME280;13506;50.852;20.632;2023-02-14T08:38:05;99909.69;;;3.11;99.53
21359;BME280;13506;50.852;20.632;2023-02-14T08:40:35;99897.81;;;2.99;99.66
21359;BME280;13506;50.852;20.632;2023-02-14T08:43:03;99892.47;;;3.10;99.71
21359;BME280;13506;50.852;20.632;2023-02-14T08:45:32;99907.09;;;3.13;99.02
21359;BME280;13506;50.852;20.632;2023-02-14T08:48:01;99914.63;;;3.25;99.12
21359;BME280;13506;50.852;20.632;2023-02-14T08:50:29;99911.16;;;3.26;98.68
21359;BME280;13506;50.852;20.632;2023-02-14T08:52:57;99916.19;;;3.35;98.54
21359;BME280;13506;50.852;20.632;2023-02-14T08:55:25;99924.69;;;3.42;98.31
21359;BME280;13506;50.852;20.632;2023-02-14T08:57:56;99919.19;;;3.60;98.73
21359;BME280;13506;50.852;20.632;2023-02-14T09:00:26;99912.72;;;3.83;97.79
21359;BME280;13506;50.852;20.632;2023-02-14T09:02:54;99920.25;;;3.95;95.57
21359;BME280;13506;50.852;20.632;2023-02-14T09:05:22;99934.78;;;4.01;95.47
21359;BME280;13506;50.852;20.632;2023-02-14T09:07:50;99923.59;;;4.00;95.20
21359;BME280;13506;50.852;20.632;2023-02-14T09:10:19;99921.78;;;4.83;96.84
21359;BME280;13506;50.852;20.632;2023-02-14T09:12:47;99924.53;;;5.15;92.22
21359;BME280;13506;50.852;20.632;2023-02-14T09:15:17;99920.09;;;5.20;91.55
21359;BME280;13506;50.852;20.632;2023-02-14T09:17:48;99927.94;;;5.17;89.85
21359;BME280;13506;50.852;20.632;2023-02-14T09:20:16;99931.50;;;5.13;89.99
21359;BME280;13506;50.852;20.632;2023-02-14T09:22:44;99912.63;;;5.08;90.43
21359;BME280;13506;50.852;20.632;2023-02-14T09:25:12;99922.88;;;4.75;89.44
21359;BME280;13506;50.852;20.632;2023-02-14T09:27:40;99918.59;;;4.74;89.35
21359;BME280;13506;50.852;20.632;2023-02-14T09:30:10;99918.59;;;4.74;90.07
21359;BME280;13506;50.852;20.632;2023-02-14T09:32:39;99921.75;;;4.85;89.27
21359;BME280;13506;50.852;20.632;2023-02-14T09:35:08;99936.38;;;4.89;89.43
21359;BME280;13506;50.852;20.632;2023-02-14T09:37:53;99925.31;;;4.81;89.59
21359;BME280;13506;50.852;20.632;2023-02-14T09:40:22;99930.34;;;4.89;90.49
21359;BME280;13506;50.852;20.632;2023-02-14T09:43:03;99928.84;;;4.78;90.22
21359;BME280;13506;50.852;20.632;2023-02-14T09:45:35;99934.13;;;4.74;89.79
21359;BME280;13506;50.852;20.632;2023-02-14T09:48:09;99935.06;;;5.09;92.03
21359;BME280;13506;50.852;20.632;2023-02-14T09:50:42;99938.25;;;5.20;90.27
21359;BME280;13506;50.852;20.632;2023-02-14T09:53:21;99951.06;;;5.26;89.34
21359;BME280;13506;50.852;20.632;2023-02-14T09:55:56;99948.63;;;5.20;89.63
21359;BME280;13506;50.852;20.632;2023-02-14T09:58:31;99952.22;;;5.16;88.85
21359;BME280;13506;50.852;20.632;2023-02-14T10:01:08;99953.25;;;5.07;88.96
21359;BME280;13506;50.852;20.632;2023-02-14T10:04:01;99951.38;;;4.75;89.30
21359;BME280;13506;50.852;20.632;2023-02-14T10:06:49;99955.00;;;4.68;89.41
21359;BME280;13506;50.852;20.632;2023-02-14T10:09:45;99950.09;;;4.55;90.05
21359;BME280;13506;50.852;20.632;2023-02-14T10:12:22;99943.94;;;4.61;90.51
21359;BME280;13506;50.852;20.632;2023-02-14T10:14:53;99936.66;;;4.38;89.75
21359;BME280;13506;50.852;20.632;2023-02-14T10:17:29;99955.53;;;4.43;89.84
21359;BME280;13506;50.852;20.632;2023-02-14T10:20:14;99947.25;;;4.25;90.65
21359;BME280;13506;50.852;20.632;2023-02-14T10:22:50;99948.91;;;4.30;91.62
21359;BME280;13506;50.852;20.632;2023-02-14T10:25:23;99948.22;;;4.21;91.80
21359;BME280;13506;50.852;20.632;2023-02-14T10:27:57;99945.69;;;4.18;91.80
21359;BME280;13506;50.852;20.632;2023-02-14T10:30:25;99948.41;;;4.12;90.93
21359;BME280;13506;50.852;20.632;2023-02-14T10:33:01;99949.13;;;4.19;91.63
21359;BME280;13506;50.852;20.632;2023-02-14T10:35:39;99953.97;;;4.36;91.90
21359;BME280;13506;50.852;20.632;2023-02-14T10:38:25;99927.03;;;4.43;91.42
21359;BME280;13506;50.852;20.632;2023-02-14T10:41:17;99915.84;;;4.41;91.06
21359;BME280;13506;50.852;20.632;2023-02-14T10:43:58;99931.78;;;4.22;91.48
21359;BME280;13506;50.852;20.632;2023-02-14T10:46:35;99929.94;;;4.28;92.19
21359;BME280;13506;50.852;20.632;2023-02-14T10:49:25;99935.81;;;4.37;92.02
21359;BME280;13506;50.852;20.632;2023-02-14T10:52:04;99940.66;;;4.53;91.78
21359;BME280;13506;50.852;20.632;2023-02-14T10:54:38;99929.09;;;4.68;92.23
21359;BME280;13506;50.852;20.632;2023-02-14T10:57:12;99935.31;;;4.99;91.47
21359;BME280;13506;50.852;20.632;2023-02-14T10:59:48;99935.88;;;5.11;89.43
21359;BME280;13506;50.852;20.632;2023-02-14T11:02:24;99921.81;;;5.21;88.97
21359;BME280;13506;50.852;20.632;2023-02-14T11:04:53;99930.72;;;5.09;88.23
21359;BME280;13506;50.852;20.632;2023-02-14T11:07:22;99930.94;;;5.01;87.91
21359;BME280;13506;50.852;20.632;2023-02-14T11:09:51;99914.72;;;4.90;87.87
21359;BME280;13506;50.852;20.632;2023-02-14T11:12:34;99927.03;;;4.82;88.37
21359;BME280;13506;50.852;20.632;2023-02-14T11:15:22;99932.59;;;4.65;88.60
21359;BME280;13506;50.852;20.632;2023-02-14T11:18:08;99925.69;;;4.64;89.18
21359;BME280;13506;50.852;20.632;2023-02-14T11:20:39;99936.06;;;4.64;90.08
21359;BME280;13506;50.852;20.632;2023-02-14T11:23:22;99931.22;;;4.50;90.45
21359;BME280;13506;50.852;20.632;2023-02-14T11:25:53;99930.34;;;4.50;89.78
21359;BME280;13506;50.852;20.632;2023-02-14T11:28:22;99924.03;;;4.61;90.04
21359;BME280;13506;50.852;20.632;2023-02-14T11:30:51;99912.78;;;4.62;89.28
21359;BME280;13506;50.852;20.632;2023-02-14T11:33:31;99914.00;;;4.83;89.85
21359;BME280;13506;50.852;20.632;2023-02-14T11:36:02;99912.63;;;5.08;89.53
21359;BME280;13506;50.852;20.632;2023-02-14T11:38:35;99901.84;;;5.23;88.42
21359;BME280;13506;50.852;20.632;2023-02-14T11:41:08;99898.91;;;5.37;87.92
21359;BME280;13506;50.852;20.632;2023-02-14T11:43:38;99893.91;;;5.31;86.18
21359;BME280;13506;50.852;20.632;2023-02-14T11:46:14;99898.31;;;5.27;87.11
21359;BME280;13506;50.852;20.632;2023-02-14T11:48:57;99901.72;;;5.29;87.00
21359;BME280;13506;50.852;20.632;2023-02-14T11:51:29;99894.81;;;5.28;87.64
21359;BME280;13506;50.852;20.632;2023-02-14T11:54:01;99893.34;;;5.18;87.38
21359;BME280;13506;50.852;20.632;2023-02-14T11:56:49;99894.94;;;5.22;87.47
21359;BME280;13506;50.852;20.632;2023-02-14T11:59:27;99891.31;;;5.29;87.12
21359;BME280;13506;50.852;20.632;2023-02-14T12:01:59;99881.50;;;5.40;86.99
21359;BME280;13506;50.852;20.632;2023-02-14T12:04:32;99884.03;;;5.43;86.04
21359;BME280;13506;50.852;20.632;2023-02-14T12:07:18;99872.22;;;5.64;86.43
21359;BME280;13506;50.852;20.632;2023-02-14T12:10:24;99878.47;;;5.88;86.11
21359;BME280;13506;50.852;20.632;2023-02-14T12:12:55;99870.03;;;5.80;83.85
21359;BME280;13506;50.852;20.632;2023-02-14T12:15:35;99858.06;;;5.75;83.76
21359;BME280;13506;50.852;20.632;2023-02-14T12:21:41;99844.38;;;5.38;84.63
21359;BME280;13506;50.852;20.632;2023-02-14T12:24:20;99851.38;;;5.67;86.13
21359;BME280;13506;50.852;20.632;2023-02-14T12:26:56;99858.50;;;5.91;85.01
21359;BME280;13506;50.852;20.632;2023-02-14T12:29:33;99856.38;;;6.05;84.58
21359;BME280;13506;50.852;20.632;2023-02-14T12:32:13;99852.78;;;6.09;84.17
21359;BME280;13506;50.852;20.632;2023-02-14T12:34:43;99850.28;;;6.04;83.26
21359;BME280;13506;50.852;20.632;2023-02-14T12:37:28;99861.81;;;5.96;83.47
21359;BME280;13506;50.852;20.632;2023-02-14T12:40:11;99863.53;;;5.97;83.35
21359;BME280;13506;50.852;20.632;2023-02-14T12:43:13;99854.66;;;6.04;83.33
21359;BME280;13506;50.852;20.632;2023-02-14T12:46:02;99851.97;;;6.07;83.33
21359;BME280;13506;50.852;20.632;2023-02-14T12:48:46;99860.66;;;6.06;83.66
21359;BME280;13506;50.852;20.632;2023-02-14T12:51:22;99857.00;;;6.13;82.75
21359;BME280;13506;50.852;20.632;2023-02-14T12:54:17;99842.81;;;6.23;82.92
21359;BME280;13506;50.852;20.632;2023-02-14T12:57:01;99850.41;;;6.29;82.10
21359;BME280;13506;50.852;20.632;2023-02-14T12:59:40;99848.31;;;6.13;82.56
21359;BME280;13506;50.852;20.632;2023-02-14T13:05:23;99853.13;;;5.97;82.71
21359;BME280;13506;50.852;20.632;2023-02-14T13:08:08;99850.84;;;5.86;83.12
21359;BME280;13506;50.852;20.632;2023-02-14T13:10:53;99856.63;;;5.96;83.06
21359;BME280;13506;50.852;20.632;2023-02-14T13:13:30;99862.75;;;5.93;82.87
21359;BME280;13506;50.852;20.632;2023-02-14T13:16:12;99855.56;;;6.03;83.13
21359;BME280;13506;50.852;20.632;2023-02-14T13:18:49;99853.09;;;6.28;83.04
21359;BME280;13506;50.852;20.632;2023-02-14T13:21:22;99856.97;;;6.43;82.19
21359;BME280;13506;50.852;20.632;2023-02-14T13:24:09;99859.03;;;6.60;81.76
21359;BME280;13506;50.852;20.632;2023-02-14T13:26:42;99849.72;;;6.81;81.22
21359;BME280;13506;50.852;20.632;2023-02-14T13:29:15;99856.56;;;6.83;79.94
21359;BME280;13506;50.852;20.632;2023-02-14T13:31:48;99851.41;;;6.82;80.11
21359;BME280;13506;50.852;20.632;2023-02-14T13:34:23;99853.13;;;6.83;79.27
21359;BME280;13506;50.852;20.632;2023-02-14T13:36:53;99838.41;;;6.82;78.20
21359;BME280;13506;50.852;20.632;2023-02-14T13:39:28;99849.28;;;6.66;78.63
21359;BME280;13506;50.852;20.632;2023-02-14T13:41:58;99859.56;;;6.69;79.34
21359;BME280;13506;50.852;20.632;2023-02-14T13:44:44;99855.72;;;6.83;78.95